createdAt,value
2023-03-11T00:03:11.739Z,93006.00
2023-03-11T00:07:12.480Z,93002.00
2023-03-11T00:11:12.115Z,93004.00
2023-03-11T00:15:12.290Z,93008.00
2023-03-11T00:19:12.495Z,93019.00
2023-03-11T00:23:12.684Z,93013.00
2023-03-11T00:27:12.849Z,93013.00
2023-03-11T00:31:13.075Z,93025.00
2023-03-11T00:35:13.214Z,93010.00
2023-03-11T00:39:13.422Z,93021.00
2023-03-11T00:43:13.604Z,93035.00
2023-03-11T00:47:13.775Z,93045.00
2023-03-11T00:51:13.981Z,93043.00
2023-03-11T00:55:14.140Z,93027.00
2023-03-11T00:59:14.334Z,93031.00
2023-03-11T01:03:14.508Z,93021.00
2023-03-11T01:07:14.745Z,93035.00
2023-03-11T01:11:14.906Z,93037.00
2023-03-11T01:15:15.203Z,93039.00
2023-03-11T01:19:15.324Z,93037.00
2023-03-11T01:23:15.502Z,93015.00
2023-03-11T01:27:15.690Z,93013.00
2023-03-11T01:31:15.974Z,93019.00
2023-03-11T01:35:16.095Z,93015.00
2023-03-11T01:39:16.282Z,93008.00
2023-03-11T01:43:16.479Z,93002.00
2023-03-11T01:47:16.698Z,93011.00
2023-03-11T01:51:17.004Z,93015.00
2023-03-11T01:55:17.116Z,93006.00
2023-03-11T01:59:17.332Z,93002.00
2023-03-11T02:03:17.647Z,93008.00
2023-03-11T02:07:17.725Z,93010.00
2023-03-11T02:11:17.954Z,93000.00
2023-03-11T02:15:18.158Z,93000.00
2023-03-11T02:19:18.357Z,93006.00
2023-03-11T02:23:18.571Z,93021.00
2023-03-11T02:27:18.763Z,93019.00
2023-03-11T02:31:18.990Z,93021.00
2023-03-11T02:35:19.163Z,93019.00
2023-03-11T02:39:19.419Z,93011.00
2023-03-11T02:43:19.665Z,93015.00
2023-03-11T02:47:19.786Z,93017.00
2023-03-11T02:51:19.960Z,93039.00
2023-03-11T02:55:20.153Z,93043.00
2023-03-11T02:59:20.358Z,93043.00
2023-03-11T03:03:20.553Z,93035.00
2023-03-11T03:07:20.768Z,93033.00
2023-03-11T03:11:20.986Z,93035.00
2023-03-11T03:15:21.201Z,93049.00
2023-03-11T03:19:21.405Z,93051.00
2023-03-11T03:23:21.609Z,93055.00
2023-03-11T03:27:21.825Z,93062.00
2023-03-11T03:31:22.081Z,93062.00
2023-03-11T03:35:22.024Z,93064.00
2023-03-11T03:39:21.970Z,93062.00
2023-03-11T03:43:21.946Z,93043.00
2023-03-11T03:47:21.903Z,93064.00
2023-03-11T03:51:21.853Z,93092.00
2023-03-11T03:55:21.818Z,93105.00
2023-03-11T03:59:21.820Z,93096.00
2023-03-11T04:03:21.846Z,93111.00
2023-03-11T04:07:21.714Z,93103.00
2023-03-11T04:11:21.822Z,93086.00
2023-03-11T04:15:21.787Z,93088.00
2023-03-11T04:19:21.716Z,93084.00
2023-03-11T04:23:21.700Z,93094.00
2023-03-11T04:27:21.656Z,93111.00
2023-03-11T04:31:21.687Z,93107.00
2023-03-11T04:35:21.582Z,93119.00
2023-03-11T04:39:21.526Z,93123.00
2023-03-11T04:43:21.515Z,93131.00
2023-03-11T04:47:21.468Z,93139.00
2023-03-11T04:51:21.433Z,93133.00
2023-03-11T04:55:21.451Z,93139.00
2023-03-11T04:59:21.364Z,93137.00
2023-03-11T05:03:21.454Z,93141.00
2023-03-11T05:07:21.288Z,93149.00
2023-03-11T05:11:21.268Z,93158.00
2023-03-11T05:15:21.223Z,93166.00
2023-03-11T05:19:21.195Z,93172.00
2023-03-11T05:23:21.171Z,93174.00
2023-03-11T05:27:21.176Z,93186.00
2023-03-11T05:31:21.155Z,93190.00
2023-03-11T05:35:21.157Z,93194.00
2023-03-11T05:39:21.052Z,93190.00
2023-03-11T05:43:21.136Z,93192.00
2023-03-11T05:47:21.003Z,93201.00
2023-03-11T05:51:20.949Z,93199.00
2023-03-11T05:55:20.915Z,93203.00
2023-03-11T05:59:20.873Z,93211.00
2023-03-11T06:03:20.850Z,93227.00
2023-03-11T06:07:20.804Z,93235.00
2023-03-11T06:11:20.763Z,93237.00
2023-03-11T06:15:20.809Z,93231.00
2023-03-11T06:19:20.782Z,93229.00
2023-03-11T06:23:20.730Z,93231.00
2023-03-11T06:27:20.679Z,93237.00
2023-03-11T06:31:20.687Z,93243.00
2023-03-11T06:35:20.613Z,93245.00
2023-03-11T06:39:20.593Z,93247.00
2023-03-11T06:43:20.552Z,93251.00
2023-03-11T06:47:20.505Z,93254.00
2023-03-11T06:51:20.473Z,93260.00
2023-03-11T06:55:20.484Z,93270.00
2023-03-11T06:59:20.450Z,93276.00
2023-03-11T07:03:20.437Z,93276.00
2023-03-11T07:07:20.376Z,93276.00
2023-03-11T07:11:20.446Z,93282.00
2023-03-11T07:15:20.298Z,93286.00
2023-03-11T07:19:20.508Z,93294.00
2023-03-11T07:23:20.356Z,93298.00
2023-03-11T07:27:20.241Z,93303.00
2023-03-11T07:31:20.228Z,93309.00
2023-03-11T07:35:20.235Z,93319.00
2023-03-11T07:39:20.270Z,93319.00
2023-03-11T07:43:20.145Z,93331.00
2023-03-11T07:47:20.107Z,93329.00
2023-03-11T07:51:20.081Z,93327.00
2023-03-11T07:55:20.036Z,93325.00
2023-03-11T07:59:19.998Z,93337.00
2023-03-11T08:03:20.004Z,93341.00
2023-03-11T08:07:19.927Z,93345.00
2023-03-11T08:11:19.888Z,93345.00
2023-03-11T08:15:19.932Z,93343.00
2023-03-11T08:19:19.886Z,93360.00
2023-03-11T08:23:19.853Z,93362.00
2023-03-11T08:27:19.830Z,93366.00
2023-03-11T08:31:19.885Z,93362.00
2023-03-11T08:35:19.739Z,93346.00
2023-03-11T08:39:19.798Z,93360.00
2023-03-11T08:43:19.678Z,93364.00
2023-03-11T08:47:19.713Z,93366.00
2023-03-11T08:51:19.580Z,93360.00
2023-03-11T08:55:19.547Z,93345.00
2023-03-11T08:59:19.767Z,93350.00
2023-03-11T09:03:19.994Z,93364.00
2023-03-11T09:07:20.178Z,93366.00
2023-03-11T09:11:20.352Z,93346.00
2023-03-11T09:15:20.538Z,93343.00
2023-03-11T09:19:20.747Z,93350.00
2023-03-11T09:23:20.912Z,93352.00
2023-03-11T09:27:21.118Z,93348.00
2023-03-11T09:31:21.338Z,93345.00
2023-03-11T09:35:21.517Z,93364.00
2023-03-11T09:39:21.655Z,93372.00
2023-03-11T09:43:21.801Z,93368.00
2023-03-11T09:47:22.005Z,93374.00
2023-03-11T09:51:22.189Z,93370.00
2023-03-11T09:55:22.356Z,93366.00
2023-03-11T09:59:22.513Z,93380.00
2023-03-11T10:03:22.753Z,93380.00
2023-03-11T10:07:22.827Z,93374.00
2023-03-11T10:11:23.050Z,93374.00
2023-03-11T10:15:23.124Z,93378.00
2023-03-11T10:19:23.255Z,93382.00
2023-03-11T10:23:23.417Z,93378.00
2023-03-11T10:27:23.608Z,93380.00
2023-03-11T10:31:23.711Z,93376.00
2023-03-11T10:35:23.810Z,93376.00
2023-03-11T10:39:23.918Z,93380.00
2023-03-11T10:43:24.041Z,93385.00
2023-03-11T10:47:24.163Z,93387.00
2023-03-11T10:51:24.289Z,93383.00
2023-03-11T10:55:24.401Z,93385.00
2023-03-11T10:59:24.511Z,93383.00
2023-03-11T11:03:24.618Z,93382.00
2023-03-11T11:07:24.748Z,93378.00
2023-03-11T11:11:24.853Z,93374.00
2023-03-11T11:15:24.980Z,93374.00
2023-03-11T11:19:25.076Z,93372.00
2023-03-11T11:23:25.209Z,93372.00
2023-03-11T11:27:25.311Z,93376.00
2023-03-11T11:31:25.416Z,93378.00
2023-03-11T11:35:25.639Z,93372.00
2023-03-11T11:39:25.723Z,93374.00
2023-03-11T11:43:25.740Z,93376.00
2023-03-11T11:47:25.866Z,93374.00
2023-03-11T11:51:25.965Z,93372.00
2023-03-11T11:55:26.066Z,93362.00
2023-03-11T11:59:26.201Z,93346.00
2023-03-11T12:03:26.304Z,93335.00
2023-03-11T12:07:26.393Z,93323.00
2023-03-11T12:11:26.532Z,93317.00
2023-03-11T12:15:26.613Z,93311.00
2023-03-11T12:19:26.724Z,93309.00
2023-03-11T12:23:26.808Z,93307.00
2023-03-11T12:27:26.927Z,93298.00
2023-03-11T12:31:27.141Z,93296.00
2023-03-11T12:35:27.133Z,93294.00
2023-03-11T12:39:27.259Z,93286.00
2023-03-11T12:43:27.369Z,93284.00
2023-03-11T12:47:27.506Z,93278.00
2023-03-11T12:51:27.593Z,93276.00
2023-03-11T12:55:27.689Z,93272.00
2023-03-11T12:59:27.781Z,93272.00
2023-03-11T13:03:27.904Z,93264.00
2023-03-11T13:07:28.103Z,93266.00
2023-03-11T13:11:28.106Z,93270.00
2023-03-11T13:15:28.250Z,93266.00
2023-03-11T13:19:28.324Z,93266.00
2023-03-11T13:23:28.451Z,93266.00
2023-03-11T13:27:28.567Z,93264.00
2023-03-11T13:31:28.758Z,93264.00
2023-03-11T13:35:28.808Z,93264.00
2023-03-11T13:39:28.891Z,93266.00
2023-03-11T13:43:29.014Z,93272.00
2023-03-11T13:47:29.141Z,93276.00
2023-03-11T13:51:29.268Z,93286.00
2023-03-11T13:55:29.385Z,93286.00
2023-03-11T13:59:29.533Z,93286.00
2023-03-11T14:03:29.659Z,93288.00
2023-03-11T14:07:29.940Z,93290.00
2023-03-11T14:11:29.973Z,93298.00
2023-03-11T14:15:30.070Z,93305.00
2023-03-11T14:19:30.219Z,93307.00
2023-03-11T14:23:30.391Z,93311.00
2023-03-11T14:27:30.504Z,93313.00
2023-03-11T14:31:30.754Z,93323.00
2023-03-11T14:35:30.936Z,93321.00
2023-03-11T14:39:31.012Z,93325.00
2023-03-11T14:43:31.098Z,93335.00
2023-03-11T14:47:31.243Z,93343.00
2023-03-11T14:51:31.396Z,93350.00
2023-03-11T14:55:31.527Z,93360.00
2023-03-11T14:59:31.793Z,93362.00
2023-03-11T15:03:31.909Z,93372.00
2023-03-11T15:07:33.435Z,93380.00
2023-03-11T15:11:31.909Z,93385.00
2023-03-11T15:15:31.878Z,93385.00
2023-03-11T15:19:31.839Z,93382.00
2023-03-11T15:23:31.789Z,93382.00
2023-03-11T15:27:31.777Z,93380.00
2023-03-11T15:31:31.756Z,93387.00
2023-03-11T15:35:31.746Z,93391.00
2023-03-11T15:39:31.660Z,93403.00
2023-03-11T15:43:31.631Z,93413.00
2023-03-11T15:47:31.583Z,93417.00
2023-03-11T15:51:31.558Z,93429.00
2023-03-11T15:55:31.529Z,93442.00
2023-03-11T15:59:31.504Z,93450.00
2023-03-11T16:03:31.767Z,93450.00
2023-03-11T16:07:39.447Z,93458.00
2023-03-11T16:11:32.965Z,93458.00
2023-03-11T16:15:32.237Z,93464.00
2023-03-11T16:19:32.353Z,93480.00
2023-03-11T16:23:48.541Z,93493.00
2023-03-11T16:27:33.517Z,93497.00
2023-03-11T16:31:32.541Z,93501.00
2023-03-11T16:35:32.582Z,93509.00
2023-03-11T16:39:32.754Z,93527.00
2023-03-11T16:43:32.959Z,93517.00
2023-03-11T16:47:33.178Z,93511.00
2023-03-11T16:51:33.365Z,93525.00
2023-03-11T16:55:33.602Z,93532.00
2023-03-11T16:59:33.797Z,93542.00
2023-03-11T17:03:42.063Z,93538.00
2023-03-11T17:07:35.006Z,93536.00
2023-03-11T17:11:33.961Z,93550.00
2023-03-11T17:15:34.136Z,93562.00
2023-03-11T17:19:34.316Z,93566.00
2023-03-11T17:23:34.537Z,93572.00
2023-03-11T17:27:34.738Z,93578.00
2023-03-11T17:31:35.028Z,93589.00
2023-03-11T17:35:35.282Z,93601.00
2023-03-11T17:39:35.359Z,93617.00
2023-03-11T17:43:35.551Z,93628.00
2023-03-11T17:47:35.782Z,93642.00
2023-03-11T17:51:35.741Z,93644.00
2023-03-11T17:55:35.723Z,93648.00
2023-03-11T17:59:35.689Z,93654.00
2023-03-11T18:03:35.688Z,93662.00
2023-03-11T18:07:35.597Z,93673.00
2023-03-11T18:11:35.552Z,93679.00
2023-03-11T18:15:35.532Z,93697.00
2023-03-11T18:19:35.491Z,93699.00
2023-03-11T18:23:35.445Z,93713.00
2023-03-11T18:27:35.425Z,93725.00
2023-03-11T18:31:35.407Z,93732.00
2023-03-11T18:35:35.456Z,93742.00
2023-03-11T18:39:35.325Z,93746.00
2023-03-11T18:43:35.273Z,93752.00
2023-03-11T18:47:35.247Z,93766.00
2023-03-11T18:51:35.217Z,93772.00
2023-03-11T18:55:35.172Z,93768.00
2023-03-11T18:59:35.142Z,93779.00
2023-03-11T19:03:35.195Z,93775.00
2023-03-11T19:07:35.237Z,93781.00
2023-03-11T19:11:35.209Z,93783.00
2023-03-11T19:15:35.182Z,93785.00
2023-03-11T19:19:35.145Z,93791.00
2023-03-11T19:23:35.102Z,93797.00
2023-03-11T19:27:35.093Z,93805.00
2023-03-11T19:31:35.043Z,93813.00
2023-03-11T19:35:35.008Z,93815.00
2023-03-11T19:39:34.962Z,93819.00
2023-03-11T19:43:34.915Z,93822.00
2023-03-11T19:47:35.052Z,93828.00
2023-03-11T19:51:48.602Z,93830.00
2023-03-11T19:55:35.972Z,93830.00
2023-03-11T19:59:34.989Z,93842.00
2023-03-11T20:03:34.947Z,93844.00
2023-03-11T20:07:34.909Z,93848.00
2023-03-11T20:11:34.900Z,93848.00
2023-03-11T20:15:34.894Z,93850.00
2023-03-11T20:19:34.865Z,93858.00
2023-03-11T20:23:34.754Z,93856.00
2023-03-11T20:27:34.746Z,93856.00
2023-03-11T20:31:34.903Z,93856.00
2023-03-11T20:35:34.676Z,93862.00
2023-03-11T20:39:34.809Z,93873.00
2023-03-11T20:43:34.850Z,93879.00
2023-03-11T20:47:34.706Z,93879.00
2023-03-11T20:51:34.772Z,93887.00
2023-03-11T20:55:34.672Z,93887.00
2023-03-11T20:59:34.720Z,93887.00
2023-03-11T21:03:34.706Z,93889.00
2023-03-11T21:07:34.621Z,93889.00
2023-03-11T21:11:34.472Z,93891.00
2023-03-11T21:15:34.481Z,93887.00
2023-03-11T21:19:34.506Z,93899.00
2023-03-11T21:23:34.486Z,93899.00
2023-03-11T21:27:34.541Z,93905.00
2023-03-11T21:31:34.463Z,93905.00
2023-03-11T21:35:34.410Z,93909.00
2023-03-11T21:39:34.367Z,93912.00
2023-03-11T21:43:34.300Z,93914.00
2023-03-11T21:47:34.267Z,93918.00
2023-03-11T21:51:34.267Z,93916.00
2023-03-11T21:55:34.255Z,93918.00
2023-03-11T21:59:34.232Z,93920.00
2023-03-11T22:03:34.177Z,93922.00
2023-03-11T22:07:34.349Z,93922.00
2023-03-11T22:11:34.448Z,93920.00
2023-03-11T22:15:34.730Z,93928.00
2023-03-11T22:19:34.805Z,93930.00
2023-03-11T22:23:34.955Z,93930.00
2023-03-11T22:27:35.107Z,93932.00
2023-03-11T22:31:35.300Z,93938.00
2023-03-11T22:35:35.513Z,93938.00
2023-03-11T22:39:35.571Z,93934.00
2023-03-11T22:43:35.722Z,93940.00
2023-03-11T22:47:35.869Z,93940.00
2023-03-11T22:51:36.051Z,93946.00
2023-03-11T22:55:36.187Z,93952.00
2023-03-11T22:59:36.315Z,93956.00
2023-03-11T23:03:36.595Z,93954.00
2023-03-11T23:07:36.561Z,93956.00
2023-03-11T23:11:36.770Z,93959.00
2023-03-11T23:15:36.935Z,93961.00
2023-03-11T23:19:37.063Z,93961.00
2023-03-11T23:23:37.204Z,93961.00
2023-03-11T23:27:37.294Z,93965.00
2023-03-11T23:31:37.430Z,93969.00
2023-03-11T23:35:37.484Z,93973.00
2023-03-11T23:39:37.499Z,93977.00
2023-03-11T23:43:37.618Z,93977.00
2023-03-11T23:47:37.713Z,93981.00
2023-03-11T23:51:37.783Z,93979.00
2023-03-11T23:55:37.864Z,93985.00
2023-03-11T23:59:38.004Z,93991.00
